F7LR ELLX-EBAW
Flight info
| Callsign | F7LR |
|---|---|
| Flight time | 0h 53m |
| Altitude | 4000 |
| Route | DIK DCT LIE DCT BUB |
| Aircraft | DA42/L-SDFGRY/C |
Departure
| Time | 2026-04-28 17:43 |
|---|---|
| Airport | Luxembourg-Findel International Airport (ELLX) |
Arrival
| Time | 2026-04-28 18:36 |
|---|---|
| Airport | Antwerp International Airport (Deurne) (EBAW) |
| Time | Latitude | Longitude | Altitude | Speed | Heading |
|---|---|---|---|---|---|
| 2026-04-28 17:22 | 49.62937 | 6.20979 | 1213 ft | 0 kts | 245° |
| 2026-04-28 17:38 | 49.62922 | 6.20954 | 1213 ft | 7 kts | 188° |
| 2026-04-28 17:39 | 49.62860 | 6.20949 | 1212 ft | 12 kts | 244° |
| 2026-04-28 17:39 | 49.62816 | 6.20809 | 1212 ft | 17 kts | 243° |
| 2026-04-28 17:39 | 49.62666 | 6.20583 | 1212 ft | 14 kts | 224° |
| 2026-04-28 17:40 | 49.62598 | 6.20472 | 1213 ft | 15 kts | 216° |
| 2026-04-28 17:40 | 49.62506 | 6.20504 | 1213 ft | 14 kts | 150° |
| 2026-04-28 17:40 | 49.62440 | 6.20596 | 1213 ft | 12 kts | 88° |
| 2026-04-28 17:40 | 49.62449 | 6.20629 | 1213 ft | 0 kts | 61° |
| 2026-04-28 17:42 | 49.62481 | 6.20716 | 1213 ft | 38 kts | 62° |
| 2026-04-28 17:43 | 49.62720 | 6.21357 | 1216 ft | 95 kts | 59° |
| 2026-04-28 17:43 | 49.63088 | 6.22278 | 1462 ft | 104 kts | 52° |
| 2026-04-28 17:43 | 49.63767 | 6.22619 | 1774 ft | 111 kts | 352° |
| 2026-04-28 17:43 | 49.64561 | 6.22470 | 1969 ft | 123 kts | 351° |
| 2026-04-28 17:44 | 49.65454 | 6.22263 | 1948 ft | 136 kts | 351° |
| 2026-04-28 17:44 | 49.66429 | 6.22038 | 1906 ft | 144 kts | 351° |
| 2026-04-28 17:44 | 49.67405 | 6.21680 | 1909 ft | 145 kts | 343° |
| 2026-04-28 17:44 | 49.68379 | 6.21251 | 1909 ft | 146 kts | 343° |
| 2026-04-28 17:45 | 49.69360 | 6.20840 | 1910 ft | 146 kts | 344° |
| 2026-04-28 17:45 | 49.70347 | 6.20440 | 1908 ft | 147 kts | 344° |
| 2026-04-28 17:45 | 49.71341 | 6.20039 | 1908 ft | 148 kts | 344° |
| 2026-04-28 17:45 | 49.72325 | 6.19643 | 1911 ft | 148 kts | 344° |
| 2026-04-28 17:46 | 49.73320 | 6.19242 | 1905 ft | 148 kts | 344° |
| 2026-04-28 17:46 | 49.74313 | 6.18842 | 1904 ft | 147 kts | 344° |
| 2026-04-28 17:46 | 49.75291 | 6.18364 | 1905 ft | 149 kts | 340° |
| 2026-04-28 17:46 | 49.76267 | 6.17886 | 2130 ft | 138 kts | 342° |
| 2026-04-28 17:47 | 49.77108 | 6.17479 | 2672 ft | 117 kts | 341° |
| 2026-04-28 17:47 | 49.77883 | 6.17092 | 3003 ft | 118 kts | 341° |
| 2026-04-28 17:47 | 49.78669 | 6.16702 | 3324 ft | 119 kts | 341° |
| 2026-04-28 17:47 | 49.78925 | 6.16575 | 3436 ft | 119 kts | 341° |
| 2026-04-28 17:48 | 49.80268 | 6.15908 | 3897 ft | 131 kts | 341° |
| 2026-04-28 17:48 | 49.80879 | 6.15606 | 3894 ft | 146 kts | 341° |
| 2026-04-28 17:48 | 49.81892 | 6.15096 | 3896 ft | 159 kts | 341° |
| 2026-04-28 17:48 | 49.83330 | 6.14369 | 3891 ft | 167 kts | 341° |
| 2026-04-28 17:49 | 49.84449 | 6.13809 | 3890 ft | 170 kts | 341° |
| 2026-04-28 17:49 | 49.85212 | 6.13430 | 3891 ft | 169 kts | 341° |
| 2026-04-28 17:49 | 49.86297 | 6.12857 | 3890 ft | 165 kts | 335° |
| 2026-04-28 17:49 | 49.87342 | 6.12142 | 3892 ft | 163 kts | 336° |
| 2026-04-28 17:50 | 49.88377 | 6.11450 | 3891 ft | 161 kts | 336° |
| 2026-04-28 17:50 | 49.89404 | 6.10758 | 3864 ft | 161 kts | 335° |
| 2026-04-28 17:50 | 49.90434 | 6.10059 | 3808 ft | 162 kts | 335° |
| 2026-04-28 17:50 | 49.91460 | 6.09360 | 3806 ft | 161 kts | 335° |
| 2026-04-28 17:51 | 49.92486 | 6.08662 | 3802 ft | 161 kts | 335° |
| 2026-04-28 17:51 | 49.93513 | 6.07968 | 3800 ft | 160 kts | 335° |
| 2026-04-28 17:51 | 49.94529 | 6.07275 | 3801 ft | 159 kts | 335° |
| 2026-04-28 17:51 | 49.95541 | 6.06585 | 3801 ft | 159 kts | 335° |
| 2026-04-28 17:52 | 49.96535 | 6.05909 | 3799 ft | 157 kts | 335° |
| 2026-04-28 17:52 | 49.97537 | 6.05226 | 3805 ft | 158 kts | 335° |
| 2026-04-28 17:52 | 49.99561 | 6.03840 | 3799 ft | 159 kts | 335° |
| 2026-04-28 17:53 | 50.00575 | 6.03151 | 3800 ft | 159 kts | 335° |
| 2026-04-28 17:53 | 50.01589 | 6.02459 | 3802 ft | 159 kts | 335° |
| 2026-04-28 17:53 | 50.02605 | 6.01765 | 3799 ft | 159 kts | 335° |
| 2026-04-28 17:53 | 50.03618 | 6.01072 | 3799 ft | 159 kts | 335° |
| 2026-04-28 17:54 | 50.04628 | 6.00382 | 3802 ft | 159 kts | 335° |
| 2026-04-28 17:54 | 50.05641 | 5.99689 | 3800 ft | 159 kts | 335° |
| 2026-04-28 17:54 | 50.06656 | 5.98994 | 3802 ft | 159 kts | 335° |
| 2026-04-28 17:54 | 50.07670 | 5.98301 | 3800 ft | 159 kts | 335° |
| 2026-04-28 17:55 | 50.08686 | 5.97605 | 3803 ft | 160 kts | 335° |
| 2026-04-28 17:55 | 50.09706 | 5.96905 | 3802 ft | 160 kts | 335° |
| 2026-04-28 17:55 | 50.10711 | 5.96216 | 3891 ft | 158 kts | 335° |
| 2026-04-28 17:55 | 50.11729 | 5.95519 | 3891 ft | 160 kts | 335° |
| 2026-04-28 17:56 | 50.12731 | 5.94834 | 3890 ft | 159 kts | 335° |
| 2026-04-28 17:56 | 50.13742 | 5.94142 | 3891 ft | 158 kts | 335° |
| 2026-04-28 17:56 | 50.14753 | 5.93447 | 3891 ft | 158 kts | 335° |
| 2026-04-28 17:56 | 50.15762 | 5.92753 | 3892 ft | 159 kts | 335° |
| 2026-04-28 17:57 | 50.16773 | 5.92058 | 3892 ft | 159 kts | 335° |
| 2026-04-28 17:57 | 50.17784 | 5.91362 | 3892 ft | 159 kts | 335° |
| 2026-04-28 17:57 | 50.18794 | 5.90667 | 3891 ft | 158 kts | 335° |
| 2026-04-28 17:57 | 50.19800 | 5.89974 | 3892 ft | 158 kts | 335° |
| 2026-04-28 17:58 | 50.20805 | 5.89282 | 3892 ft | 158 kts | 335° |
| 2026-04-28 17:58 | 50.21815 | 5.88588 | 3893 ft | 159 kts | 335° |
| 2026-04-28 17:58 | 50.22825 | 5.87891 | 3891 ft | 159 kts | 335° |
| 2026-04-28 17:58 | 50.23832 | 5.87195 | 3891 ft | 158 kts | 335° |
| 2026-04-28 17:59 | 50.24837 | 5.86502 | 3891 ft | 158 kts | 335° |
| 2026-04-28 17:59 | 50.25841 | 5.85809 | 3893 ft | 158 kts | 335° |
| 2026-04-28 17:59 | 50.26855 | 5.85109 | 3894 ft | 160 kts | 335° |
| 2026-04-28 17:59 | 50.27870 | 5.84407 | 3891 ft | 159 kts | 335° |
| 2026-04-28 18:00 | 50.28883 | 5.83707 | 3893 ft | 159 kts | 335° |
| 2026-04-28 18:00 | 50.29897 | 5.83006 | 3892 ft | 159 kts | 335° |
| 2026-04-28 18:00 | 50.30910 | 5.82304 | 3892 ft | 159 kts | 335° |
| 2026-04-28 18:00 | 50.31911 | 5.81612 | 3892 ft | 159 kts | 335° |
| 2026-04-28 18:01 | 50.32927 | 5.80908 | 3891 ft | 159 kts | 335° |
| 2026-04-28 18:01 | 50.33939 | 5.80207 | 3891 ft | 159 kts | 335° |
| 2026-04-28 18:01 | 50.34948 | 5.79509 | 3891 ft | 159 kts | 335° |
| 2026-04-28 18:01 | 50.35961 | 5.78807 | 3891 ft | 158 kts | 335° |
| 2026-04-28 18:02 | 50.36964 | 5.78111 | 3891 ft | 158 kts | 335° |
| 2026-04-28 18:02 | 50.37970 | 5.77412 | 3891 ft | 158 kts | 335° |
| 2026-04-28 18:02 | 50.38976 | 5.76714 | 3893 ft | 159 kts | 335° |
| 2026-04-28 18:02 | 50.39990 | 5.76007 | 3892 ft | 159 kts | 335° |
| 2026-04-28 18:03 | 50.41002 | 5.75305 | 3892 ft | 159 kts | 335° |
| 2026-04-28 18:03 | 50.42011 | 5.74603 | 3891 ft | 159 kts | 335° |
| 2026-04-28 18:03 | 50.43022 | 5.73900 | 3893 ft | 159 kts | 335° |
| 2026-04-28 18:03 | 50.44030 | 5.73198 | 3891 ft | 159 kts | 335° |
| 2026-04-28 18:04 | 50.45040 | 5.72496 | 3892 ft | 158 kts | 335° |
| 2026-04-28 18:04 | 50.46049 | 5.71792 | 3894 ft | 158 kts | 335° |
| 2026-04-28 18:04 | 50.47062 | 5.71087 | 3891 ft | 159 kts | 335° |
| 2026-04-28 18:04 | 50.48074 | 5.70382 | 3892 ft | 159 kts | 335° |
| 2026-04-28 18:05 | 50.49061 | 5.69692 | 3891 ft | 159 kts | 335° |
| 2026-04-28 18:05 | 50.49754 | 5.69208 | 3891 ft | 159 kts | 335° |
| 2026-04-28 18:05 | 50.51090 | 5.68276 | 3893 ft | 159 kts | 335° |
| 2026-04-28 18:05 | 50.52100 | 5.67566 | 3891 ft | 159 kts | 335° |
| 2026-04-28 18:06 | 50.53112 | 5.66860 | 3891 ft | 159 kts | 335° |
| 2026-04-28 18:06 | 50.54142 | 5.66141 | 3851 ft | 160 kts | 335° |
| 2026-04-28 18:06 | 50.55144 | 5.65441 | 3851 ft | 159 kts | 335° |
| 2026-04-28 18:06 | 50.56155 | 5.64733 | 3851 ft | 159 kts | 335° |
| 2026-04-28 18:07 | 50.57167 | 5.64026 | 3849 ft | 159 kts | 335° |
| 2026-04-28 18:07 | 50.58176 | 5.63318 | 3852 ft | 159 kts | 335° |
| 2026-04-28 18:07 | 50.59183 | 5.62614 | 3847 ft | 158 kts | 335° |
| 2026-04-28 18:07 | 50.60185 | 5.61910 | 3848 ft | 158 kts | 335° |
| 2026-04-28 18:08 | 50.61184 | 5.61208 | 3848 ft | 158 kts | 335° |
| 2026-04-28 18:08 | 50.62189 | 5.60503 | 3851 ft | 158 kts | 335° |
| 2026-04-28 18:08 | 50.63194 | 5.59797 | 3852 ft | 158 kts | 335° |
| 2026-04-28 18:08 | 50.64201 | 5.59088 | 3850 ft | 158 kts | 335° |
| 2026-04-28 18:09 | 50.65209 | 5.58380 | 3852 ft | 158 kts | 335° |
| 2026-04-28 18:09 | 50.66215 | 5.57673 | 3850 ft | 158 kts | 335° |
| 2026-04-28 18:09 | 50.67221 | 5.56965 | 3852 ft | 158 kts | 335° |
| 2026-04-28 18:09 | 50.68229 | 5.56256 | 3847 ft | 158 kts | 335° |
| 2026-04-28 18:10 | 50.69231 | 5.55543 | 3846 ft | 158 kts | 333° |
| 2026-04-28 18:10 | 50.70056 | 5.54455 | 3844 ft | 157 kts | 306° |
| 2026-04-28 18:10 | 50.70513 | 5.52881 | 3841 ft | 156 kts | 287° |
| 2026-04-28 18:10 | 50.70842 | 5.51278 | 3846 ft | 156 kts | 287° |
| 2026-04-28 18:11 | 50.71172 | 5.49650 | 3847 ft | 156 kts | 287° |
| 2026-04-28 18:11 | 50.71503 | 5.48019 | 3846 ft | 156 kts | 287° |
| 2026-04-28 18:11 | 50.71835 | 5.46387 | 3847 ft | 156 kts | 287° |
| 2026-04-28 18:11 | 50.72166 | 5.44756 | 3845 ft | 156 kts | 287° |
| 2026-04-28 18:12 | 50.72498 | 5.43126 | 3845 ft | 156 kts | 287° |
| 2026-04-28 18:12 | 50.72828 | 5.41495 | 3845 ft | 156 kts | 287° |
| 2026-04-28 18:12 | 50.73160 | 5.39864 | 3846 ft | 156 kts | 287° |
| 2026-04-28 18:12 | 50.73491 | 5.38234 | 3845 ft | 156 kts | 287° |
| 2026-04-28 18:13 | 50.73820 | 5.36606 | 3845 ft | 156 kts | 287° |
| 2026-04-28 18:13 | 50.74150 | 5.34974 | 3845 ft | 156 kts | 287° |
| 2026-04-28 18:13 | 50.74475 | 5.33366 | 3845 ft | 156 kts | 287° |
| 2026-04-28 18:13 | 50.74805 | 5.31735 | 3843 ft | 156 kts | 287° |
| 2026-04-28 18:14 | 50.75136 | 5.30097 | 3842 ft | 156 kts | 287° |
| 2026-04-28 18:14 | 50.75465 | 5.28462 | 3844 ft | 156 kts | 287° |
| 2026-04-28 18:14 | 50.75796 | 5.26823 | 3845 ft | 156 kts | 287° |
| 2026-04-28 18:14 | 50.76125 | 5.25188 | 3846 ft | 156 kts | 287° |
| 2026-04-28 18:15 | 50.76455 | 5.23552 | 3844 ft | 156 kts | 287° |
| 2026-04-28 18:15 | 50.76784 | 5.21915 | 3845 ft | 156 kts | 287° |
| 2026-04-28 18:15 | 50.77111 | 5.20283 | 3844 ft | 156 kts | 287° |
| 2026-04-28 18:15 | 50.77439 | 5.18652 | 3842 ft | 156 kts | 287° |
| 2026-04-28 18:16 | 50.77768 | 5.17015 | 3846 ft | 156 kts | 287° |
| 2026-04-28 18:16 | 50.78095 | 5.15377 | 3846 ft | 156 kts | 287° |
| 2026-04-28 18:16 | 50.78423 | 5.13737 | 3846 ft | 156 kts | 287° |
| 2026-04-28 18:16 | 50.78751 | 5.12101 | 3844 ft | 156 kts | 287° |
| 2026-04-28 18:17 | 50.79079 | 5.10461 | 3843 ft | 156 kts | 287° |
| 2026-04-28 18:17 | 50.79407 | 5.08822 | 3846 ft | 156 kts | 287° |
| 2026-04-28 18:17 | 50.79732 | 5.07189 | 3843 ft | 156 kts | 287° |
| 2026-04-28 18:17 | 50.80059 | 5.05549 | 3842 ft | 156 kts | 287° |
| 2026-04-28 18:18 | 50.80386 | 5.03907 | 3846 ft | 156 kts | 287° |
| 2026-04-28 18:18 | 50.80712 | 5.02271 | 3846 ft | 156 kts | 287° |
| 2026-04-28 18:18 | 50.81037 | 5.00631 | 3841 ft | 156 kts | 287° |
| 2026-04-28 18:18 | 50.81253 | 4.99547 | 3839 ft | 156 kts | 287° |
| 2026-04-28 18:19 | 50.81684 | 4.97379 | 3846 ft | 156 kts | 287° |
| 2026-04-28 18:19 | 50.82009 | 4.95738 | 3845 ft | 156 kts | 287° |
| 2026-04-28 18:19 | 50.82334 | 4.94097 | 3842 ft | 156 kts | 287° |
| 2026-04-28 18:19 | 50.82659 | 4.92457 | 3846 ft | 156 kts | 287° |
| 2026-04-28 18:20 | 50.82985 | 4.90814 | 3844 ft | 156 kts | 287° |
| 2026-04-28 18:20 | 50.83308 | 4.89175 | 3846 ft | 156 kts | 286° |
| 2026-04-28 18:20 | 50.83631 | 4.87533 | 3844 ft | 156 kts | 287° |
| 2026-04-28 18:20 | 50.83955 | 4.85892 | 3846 ft | 156 kts | 287° |
| 2026-04-28 18:21 | 50.84280 | 4.84251 | 3844 ft | 156 kts | 286° |
| 2026-04-28 18:21 | 50.84603 | 4.82610 | 3846 ft | 156 kts | 287° |
| 2026-04-28 18:21 | 50.84928 | 4.80964 | 3843 ft | 156 kts | 286° |
| 2026-04-28 18:21 | 50.85251 | 4.79316 | 3846 ft | 156 kts | 286° |
| 2026-04-28 18:22 | 50.85574 | 4.77678 | 3843 ft | 156 kts | 286° |
| 2026-04-28 18:22 | 50.85892 | 4.76059 | 3842 ft | 156 kts | 286° |
| 2026-04-28 18:22 | 50.86213 | 4.74419 | 3844 ft | 156 kts | 286° |
| 2026-04-28 18:22 | 50.86535 | 4.72779 | 3846 ft | 156 kts | 286° |
| 2026-04-28 18:23 | 50.86856 | 4.71136 | 3913 ft | 155 kts | 289° |
| 2026-04-28 18:23 | 50.87173 | 4.69524 | 3995 ft | 155 kts | 291° |
| 2026-04-28 18:23 | 50.87497 | 4.67875 | 3996 ft | 158 kts | 290° |
| 2026-04-28 18:23 | 50.87826 | 4.66191 | 3996 ft | 161 kts | 290° |
| 2026-04-28 18:24 | 50.88156 | 4.64489 | 3996 ft | 162 kts | 290° |
| 2026-04-28 18:24 | 50.88376 | 4.63358 | 3994 ft | 162 kts | 290° |
| 2026-04-28 18:24 | 50.88819 | 4.61080 | 3995 ft | 162 kts | 290° |
| 2026-04-28 18:24 | 50.89041 | 4.59946 | 3997 ft | 163 kts | 289° |
| 2026-04-28 18:25 | 50.89456 | 4.57807 | 3995 ft | 163 kts | 290° |
| 2026-04-28 18:25 | 50.89792 | 4.56088 | 3991 ft | 163 kts | 291° |
| 2026-04-28 18:25 | 50.90356 | 4.54601 | 3996 ft | 158 kts | 316° |
| 2026-04-28 18:26 | 50.92283 | 4.53263 | 4007 ft | 152 kts | 354° |
| 2026-04-28 18:26 | 50.93332 | 4.52984 | 4008 ft | 153 kts | 354° |
| 2026-04-28 18:26 | 50.94383 | 4.52706 | 4004 ft | 153 kts | 354° |
| 2026-04-28 18:26 | 50.95436 | 4.52426 | 4005 ft | 153 kts | 353° |
| 2026-04-28 18:27 | 50.96490 | 4.52145 | 4004 ft | 153 kts | 354° |
| 2026-04-28 18:27 | 50.97542 | 4.51864 | 4002 ft | 153 kts | 353° |
| 2026-04-28 18:27 | 50.98593 | 4.51584 | 4004 ft | 153 kts | 353° |
| 2026-04-28 18:27 | 50.99645 | 4.51305 | 4004 ft | 153 kts | 354° |
| 2026-04-28 18:28 | 51.00705 | 4.51024 | 3829 ft | 156 kts | 354° |
| 2026-04-28 18:28 | 51.01769 | 4.50743 | 3578 ft | 154 kts | 354° |
| 2026-04-28 18:28 | 51.02815 | 4.50543 | 3348 ft | 149 kts | 357° |
| 2026-04-28 18:28 | 51.03824 | 4.50353 | 3174 ft | 144 kts | 357° |
| 2026-04-28 18:29 | 51.04811 | 4.50167 | 2994 ft | 142 kts | 357° |
| 2026-04-28 18:29 | 51.05790 | 4.49985 | 2836 ft | 140 kts | 357° |
| 2026-04-28 18:29 | 51.06750 | 4.49810 | 2658 ft | 139 kts | 357° |
| 2026-04-28 18:29 | 51.07695 | 4.49637 | 2481 ft | 138 kts | 357° |
| 2026-04-28 18:30 | 51.08619 | 4.49212 | 2298 ft | 142 kts | 335° |
| 2026-04-28 18:30 | 51.08903 | 4.48915 | 2239 ft | 146 kts | 326° |
| 2026-04-28 18:30 | 51.10137 | 4.46966 | 2009 ft | 149 kts | 318° |
| 2026-04-28 18:30 | 51.10834 | 4.45798 | 1999 ft | 143 kts | 316° |
| 2026-04-28 18:31 | 51.11472 | 4.44614 | 2001 ft | 139 kts | 314° |
| 2026-04-28 18:31 | 51.12086 | 4.43456 | 1996 ft | 135 kts | 314° |
| 2026-04-28 18:31 | 51.12687 | 4.42319 | 1996 ft | 133 kts | 314° |
| 2026-04-28 18:31 | 51.13284 | 4.41193 | 2000 ft | 133 kts | 314° |
| 2026-04-28 18:32 | 51.13877 | 4.40059 | 2002 ft | 135 kts | 314° |
| 2026-04-28 18:32 | 51.14274 | 4.39284 | 2001 ft | 138 kts | 314° |
| 2026-04-28 18:32 | 51.14887 | 4.38087 | 2001 ft | 140 kts | 315° |
| 2026-04-28 18:32 | 51.15503 | 4.36874 | 1998 ft | 141 kts | 314° |
| 2026-04-28 18:33 | 51.16322 | 4.35258 | 1998 ft | 142 kts | 314° |
| 2026-04-28 18:33 | 51.16996 | 4.34128 | 1991 ft | 137 kts | 335° |
| 2026-04-28 18:33 | 51.17871 | 4.33952 | 2002 ft | 125 kts | 20° |
| 2026-04-28 18:33 | 51.18347 | 4.34430 | 2026 ft | 117 kts | 42° |
| 2026-04-28 18:34 | 51.18854 | 4.35426 | 2006 ft | 115 kts | 55° |
| 2026-04-28 18:34 | 51.19302 | 4.36465 | 1990 ft | 113 kts | 55° |
| 2026-04-28 18:34 | 51.19741 | 4.37517 | 1765 ft | 113 kts | 55° |
| 2026-04-28 18:34 | 51.20156 | 4.38573 | 1462 ft | 112 kts | 60° |
| 2026-04-28 18:35 | 51.20360 | 4.39781 | 1145 ft | 117 kts | 84° |
| 2026-04-28 18:35 | 51.20201 | 4.41051 | 752 ft | 118 kts | 106° |
| 2026-04-28 18:35 | 51.19906 | 4.42224 | 495 ft | 109 kts | 103° |
| 2026-04-28 18:35 | 51.19670 | 4.43347 | 325 ft | 103 kts | 103° |
| 2026-04-28 18:36 | 51.19433 | 4.44399 | 179 ft | 101 kts | 104° |
| 2026-04-28 18:36 | 51.19205 | 4.45392 | 62 ft | 87 kts | 104° |
| 2026-04-28 18:36 | 51.19034 | 4.46163 | 35 ft | 54 kts | 108° |
| 2026-04-28 18:36 | 51.18934 | 4.46606 | 37 ft | 37 kts | 110° |
| 2026-04-28 18:37 | 51.18849 | 4.46978 | 34 ft | 31 kts | 110° |
| 2026-04-28 18:37 | 51.18800 | 4.47192 | 34 ft | 19 kts | 110° |
| 2026-04-28 18:37 | 51.18728 | 4.47191 | 34 ft | 14 kts | 232° |
| 2026-04-28 18:37 | 51.18665 | 4.47060 | 35 ft | 16 kts | 230° |
| 2026-04-28 18:38 | 51.18601 | 4.46907 | 35 ft | 17 kts | 246° |
| 2026-04-28 18:38 | 51.18576 | 4.46717 | 35 ft | 18 kts | 270° |
| 2026-04-28 18:38 | 51.18597 | 4.46523 | 35 ft | 18 kts | 284° |
| 2026-04-28 18:38 | 51.18627 | 4.46330 | 35 ft | 18 kts | 284° |
| 2026-04-28 18:39 | 51.18658 | 4.46137 | 35 ft | 18 kts | 285° |
| 2026-04-28 18:39 | 51.18689 | 4.45943 | 35 ft | 18 kts | 283° |
| 2026-04-28 18:39 | 51.18720 | 4.45745 | 35 ft | 18 kts | 283° |
| 2026-04-28 18:39 | 51.18750 | 4.45550 | 35 ft | 17 kts | 285° |
| 2026-04-28 18:40 | 51.18800 | 4.45471 | 34 ft | 10 kts | 342° |
| 2026-04-28 18:40 | 51.18886 | 4.45431 | 34 ft | 15 kts | 327° |
| 2026-04-28 18:40 | 51.18951 | 4.45347 | 34 ft | 7 kts | 277° |
| 2026-04-28 18:40 | 51.18973 | 4.45279 | 34 ft | 8 kts | 333° |
| 2026-04-28 18:41 | 51.19000 | 4.45308 | 35 ft | 3 kts | 52° |
| 2026-04-28 18:41 | 51.19006 | 4.45306 | 35 ft | 0 kts | 284° |
| 2026-04-28 18:41 | 51.19006 | 4.45299 | 34 ft | 0 kts | 285° |
| 2026-04-28 18:41 | 51.19008 | 4.45294 | 35 ft | 4 kts | 344° |
| 2026-04-28 18:42 | 51.19019 | 4.45319 | 35 ft | 1 kts | 304° |
| 2026-04-28 18:42 | 51.19020 | 4.45316 | 35 ft | 0 kts | 290° |